Time;durP1;ratioP1;P1;durP2;ratioP2;P2;SDS_P1;SDS_P2;PMS_P1;PMS_P2;Temp;Humidity;BMP_temperature;BMP_pressure;BME280_temperature;BME280_humidity;BME280_pressure;Samples;Min_cycle;Max_cycle;Signal;HPM_P1;HPM_P2
2023/08/13 00:00:29;;;;;;;0.90;0.90;;;21.90;75.00;;;;;;4960234;28;20431;-82
2023/08/13 00:02:55;;;;;;;1.40;1.30;;;21.90;75.20;;;;;;4958182;28;20446;-80
2023/08/13 00:05:23;;;;;;;0.70;0.70;;;21.90;75.00;;;;;;4955917;28;20453;-81
2023/08/13 00:07:50;;;;;;;0.90;0.90;;;21.80;75.40;;;;;;4950406;28;20451;-80
2023/08/13 00:10:17;;;;;;;1.03;0.97;;;21.80;75.90;;;;;;4952282;28;20416;-81
2023/08/13 00:12:43;;;;;;;2.37;2.27;;;21.70;76.50;;;;;;4965823;28;20825;-80
2023/08/13 00:15:11;;;;;;;1.00;1.00;;;21.60;77.30;;;;;;4956308;29;20863;-81
2023/08/13 00:17:38;;;;;;;0.90;0.90;;;21.60;76.80;;;;;;4963503;28;20449;-81
2023/08/13 00:20:07;;;;;;;0.60;0.60;;;21.70;77.50;;;;;;4957970;28;20424;-81
2023/08/13 00:23:24;;;;;;;1.23;1.07;;;21.60;78.00;;;;;;4957851;28;20450;-81
2023/08/13 00:26:06;;;;;;;0.83;0.83;;;21.60;78.30;;;;;;4955765;28;20449;-82
2023/08/13 00:28:32;;;;;;;1.67;1.57;;;21.50;78.90;;;;;;4953714;28;20514;-82
2023/08/13 00:31:00;;;;;;;1.00;1.00;;;21.60;78.60;;;;;;4960153;28;20443;-82
2023/08/13 00:33:26;;;;;;;0.70;0.70;;;21.50;78.60;;;;;;4968661;28;20442;-81
2023/08/13 00:35:54;;;;;;;0.97;0.97;;;21.50;79.00;;;;;;4965220;28;20495;-82
2023/08/13 00:38:21;;;;;;;0.90;0.90;;;21.50;79.60;;;;;;4959184;28;20504;-81
2023/08/13 00:40:48;;;;;;;0.60;0.60;;;21.50;80.70;;;;;;4945377;28;20442;-81
2023/08/13 00:43:15;;;;;;;1.43;1.43;;;21.50;80.20;;;;;;4959670;28;20466;-82
2023/08/13 00:45:43;;;;;;;0.70;0.70;;;21.60;80.20;;;;;;4962178;28;20432;-81
2023/08/13 00:48:10;;;;;;;1.00;1.00;;;21.60;80.40;;;;;;4958009;28;20419;-80
2023/08/13 00:50:37;;;;;;;0.87;0.87;;;21.60;80.20;;;;;;4956569;28;20545;-81
2023/08/13 00:53:06;;;;;;;0.70;0.70;;;21.60;80.20;;;;;;4953161;28;20791;-82
2023/08/13 00:55:34;;;;;;;0.70;0.70;;;21.60;79.40;;;;;;4950266;28;20458;-81
2023/08/13 00:58:02;;;;;;;0.60;0.60;;;21.60;79.00;;;;;;4951025;28;20450;-82
2023/08/13 01:00:30;;;;;;;0.67;0.67;;;21.60;79.00;;;;;;4958350;28;20420;-81
2023/08/13 01:02:57;;;;;;;0.90;0.90;;;21.50;79.00;;;;;;4949811;28;20449;-81
2023/08/13 01:05:39;;;;;;;0.80;0.80;;;21.60;78.60;;;;;;4963957;28;20447;-82
2023/08/13 01:08:43;;;;;;;1.17;1.07;;;21.60;78.60;;;;;;4956450;28;20468;-81
2023/08/13 01:11:24;;;;;;;0.60;0.60;;;21.70;78.10;;;;;;4957448;28;20598;-81
2023/08/13 01:14:04;;;;;;;0.80;0.73;;;21.70;78.30;;;;;;4952337;28;20443;-81
2023/08/13 01:16:33;;;;;;;0.70;0.70;;;21.70;78.30;;;;;;4955134;28;20478;-80
2023/08/13 01:19:01;;;;;;;1.03;1.00;;;21.70;78.80;;;;;;4959897;28;20640;-81
2023/08/13 01:21:28;;;;;;;0.70;0.70;;;21.70;78.90;;;;;;4960779;28;20415;-83
2023/08/13 01:23:55;;;;;;;0.90;0.90;;;21.80;78.80;;;;;;4960773;28;20452;-81
2023/08/13 01:26:26;;;;;;;1.23;1.17;;;21.70;78.90;;;;;;4948388;28;20454;-80
2023/08/13 01:29:05;;;;;;;0.60;0.60;;;21.70;78.60;;;;;;4955459;28;20440;-81
2023/08/13 01:31:35;;;;;;;1.37;1.27;;;21.70;78.80;;;;;;4952911;29;20487;-81
2023/08/13 01:34:03;;;;;;;0.70;0.70;;;21.60;79.30;;;;;;4960637;28;21092;-82
2023/08/13 01:36:32;;;;;;;2.90;2.80;;;21.60;79.50;;;;;;4959334;29;20445;-82
2023/08/13 01:39:00;;;;;;;1.23;1.13;;;21.60;79.90;;;;;;4956628;28;20460;-81
2023/08/13 01:41:53;;;;;;;0.60;0.60;;;21.60;79.50;;;;;;4960446;28;20638;-82
2023/08/13 01:44:20;;;;;;;1.23;1.23;;;21.60;79.30;;;;;;4960352;28;20837;-81
2023/08/13 01:46:48;;;;;;;3.97;1.10;;;21.50;80.00;;;;;;4968862;28;20440;-83
2023/08/13 01:49:15;;;;;;;0.97;0.97;;;21.50;79.70;;;;;;4950154;28;20478;-80
2023/08/13 01:51:43;;;;;;;0.80;0.80;;;21.50;79.90;;;;;;4959236;28;20441;-80
2023/08/13 01:54:10;;;;;;;0.80;0.80;;;21.50;79.70;;;;;;4961410;28;20464;-79
2023/08/13 01:56:37;;;;;;;0.70;0.70;;;21.40;79.70;;;;;;4959709;29;20445;-81
2023/08/13 01:59:04;;;;;;;0.70;0.70;;;21.50;79.90;;;;;;4960237;28;20514;-81
2023/08/13 02:01:31;;;;;;;0.80;0.80;;;21.50;79.70;;;;;;4954499;28;20579;-81
2023/08/13 02:03:58;;;;;;;0.80;0.80;;;21.60;80.00;;;;;;4951682;29;20438;-81
2023/08/13 02:06:25;;;;;;;0.60;0.60;;;21.50;80.20;;;;;;4965624;28;20420;-81
2023/08/13 02:08:52;;;;;;;1.13;1.13;;;21.60;80.00;;;;;;4959484;28;20504;-81
2023/08/13 02:11:19;;;;;;;0.90;0.90;;;21.50;80.90;;;;;;4958699;28;20462;-80
2023/08/13 02:13:47;;;;;;;0.90;0.90;;;21.40;80.80;;;;;;4950251;28;20437;-81
2023/08/13 02:16:14;;;;;;;3.53;1.83;;;21.50;81.00;;;;;;4965405;28;20478;-80
2023/08/13 02:18:41;;;;;;;0.60;0.60;;;21.40;80.90;;;;;;4959281;28;20532;-80
2023/08/13 02:21:08;;;;;;;0.70;0.70;;;21.40;81.30;;;;;;4975158;28;20423;-80
2023/08/13 02:23:35;;;;;;;0.80;0.80;;;21.30;82.10;;;;;;4956714;28;20446;-81
2023/08/13 02:26:02;;;;;;;0.93;0.90;;;21.20;82.60;;;;;;4959566;28;20477;-81
2023/08/13 02:28:29;;;;;;;0.70;0.70;;;21.10;82.60;;;;;;4954471;28;20465;-80
2023/08/13 02:30:56;;;;;;;0.80;0.80;;;21.00;82.70;;;;;;4962560;28;20769;-80
2023/08/13 02:33:23;;;;;;;1.17;1.07;;;21.00;83.00;;;;;;4967830;28;20479;-78
2023/08/13 02:35:50;;;;;;;0.80;0.80;;;21.00;83.80;;;;;;4952679;28;20606;-79
2023/08/13 02:38:18;;;;;;;0.60;0.60;;;20.90;84.20;;;;;;4967133;28;20792;-78
2023/08/13 02:40:45;;;;;;;0.60;0.60;;;21.00;83.60;;;;;;4958969;28;20569;-80
2023/08/13 02:43:12;;;;;;;1.07;1.07;;;21.00;84.30;;;;;;4955030;28;20511;-80
2023/08/13 02:45:39;;;;;;;0.70;0.70;;;20.80;84.40;;;;;;4959717;28;20468;-80
2023/08/13 02:48:06;;;;;;;2.50;2.40;;;20.70;84.60;;;;;;4952338;28;20480;-79
2023/08/13 02:50:33;;;;;;;0.70;0.70;;;20.60;85.10;;;;;;4961870;28;20516;-79
2023/08/13 02:53:00;;;;;;;0.70;0.70;;;20.60;85.40;;;;;;4959544;28;20656;-79
2023/08/13 02:55:28;;;;;;;0.60;0.60;;;20.60;85.00;;;;;;4958519;28;20488;-79
2023/08/13 02:57:55;;;;;;;0.60;0.60;;;20.60;85.20;;;;;;4956268;28;20705;-80
2023/08/13 03:00:36;;;;;;;0.80;0.80;;;20.60;85.00;;;;;;4947894;29;20773;-80
2023/08/13 03:03:03;;;;;;;0.60;0.60;;;20.60;86.20;;;;;;4946928;28;20416;-79
2023/08/13 03:05:32;;;;;;;2.60;2.37;;;20.60;86.70;;;;;;4958478;29;20537;-81
2023/08/13 03:07:59;;;;;;;0.87;0.87;;;20.50;86.90;;;;;;4955177;28;20434;-80
2023/08/13 03:10:26;;;;;;;1.47;1.37;;;20.60;86.30;;;;;;4958352;28;20408;-79
2023/08/13 03:12:53;;;;;;;0.87;0.87;;;20.60;87.00;;;;;;4953873;29;20605;-79
2023/08/13 03:15:20;;;;;;;2.70;1.87;;;20.60;86.90;;;;;;4958312;29;20572;-78
2023/08/13 03:17:47;;;;;;;0.80;0.80;;;20.60;86.70;;;;;;4967816;28;20423;-79
2023/08/13 03:20:14;;;;;;;0.70;0.70;;;20.60;87.20;;;;;;4958576;28;20504;-80
2023/08/13 03:22:41;;;;;;;0.70;0.70;;;20.60;87.30;;;;;;4953989;29;20445;-81
2023/08/13 03:25:08;;;;;;;0.60;0.60;;;20.60;87.10;;;;;;4950963;29;20467;-81
2023/08/13 03:27:35;;;;;;;0.60;0.60;;;20.60;87.40;;;;;;4953829;29;20424;-80
2023/08/13 03:30:03;;;;;;;0.60;0.60;;;20.60;87.40;;;;;;4950243;28;20436;-80
2023/08/13 03:32:30;;;;;;;0.63;0.63;;;20.60;87.00;;;;;;4953582;28;20446;-80
2023/08/13 03:34:57;;;;;;;0.60;0.60;;;20.70;86.70;;;;;;4961235;28;20531;-78
2023/08/13 03:37:24;;;;;;;0.70;0.70;;;20.70;86.60;;;;;;4966026;28;20466;-79
2023/08/13 03:39:51;;;;;;;0.80;0.80;;;20.80;86.80;;;;;;4963839;28;20442;-80
2023/08/13 03:42:19;;;;;;;1.00;1.00;;;20.70;86.70;;;;;;4958287;28;20497;-80
2023/08/13 03:44:46;;;;;;;0.60;0.60;;;20.70;86.60;;;;;;4958873;29;20460;-81
2023/08/13 03:47:13;;;;;;;0.70;0.70;;;20.80;86.90;;;;;;4957567;28;20694;-80
2023/08/13 03:49:40;;;;;;;0.83;0.83;;;20.80;86.70;;;;;;4952093;28;20454;-80
2023/08/13 03:52:09;;;;;;;1.87;1.77;;;20.90;86.60;;;;;;4973166;28;20454;-81
2023/08/13 03:54:36;;;;;;;1.60;1.50;;;21.10;86.00;;;;;;4951227;28;20831;-80
2023/08/13 03:57:03;;;;;;;0.90;0.90;;;21.20;85.90;;;;;;4957860;28;20457;-79
2023/08/13 03:59:30;;;;;;;0.50;0.50;;;21.30;85.90;;;;;;4963490;28;20660;-79
2023/08/13 04:01:58;;;;;;;1.80;0.93;;;21.30;85.90;;;;;;4957805;28;20424;-80
2023/08/13 04:04:26;;;;;;;0.63;0.63;;;21.30;85.70;;;;;;4957597;28;20456;-80
2023/08/13 04:06:53;;;;;;;0.60;0.60;;;21.40;86.00;;;;;;4958153;28;20461;-79
2023/08/13 04:09:20;;;;;;;0.90;0.90;;;21.40;86.40;;;;;;4956769;28;21036;-80
2023/08/13 04:11:47;;;;;;;1.27;1.17;;;21.50;85.70;;;;;;4943443;28;20499;-81
2023/08/13 04:14:14;;;;;;;0.70;0.70;;;21.60;85.50;;;;;;4958445;28;20776;-80
2023/08/13 04:16:41;;;;;;;0.93;0.93;;;21.60;85.70;;;;;;4962817;28;20484;-79
2023/08/13 04:19:08;;;;;;;0.60;0.60;;;21.70;85.20;;;;;;4951188;28;20501;-81
2023/08/13 04:21:35;;;;;;;0.70;0.70;;;21.70;85.10;;;;;;4957921;28;20424;-80
2023/08/13 04:24:02;;;;;;;1.47;1.37;;;21.70;85.20;;;;;;4949973;28;20450;-81
2023/08/13 04:26:29;;;;;;;0.87;0.87;;;21.70;85.60;;;;;;4959387;28;20906;-81
2023/08/13 04:28:56;;;;;;;0.60;0.60;;;21.70;85.00;;;;;;4952479;28;20451;-81
2023/08/13 04:31:23;;;;;;;1.33;1.33;;;21.90;85.20;;;;;;4957530;28;20484;-81
2023/08/13 04:33:50;;;;;;;1.23;1.13;;;21.90;85.00;;;;;;4951775;28;20450;-81
2023/08/13 04:36:17;;;;;;;0.70;0.70;;;21.90;84.90;;;;;;4954337;28;20677;-79
2023/08/13 04:38:44;;;;;;;0.60;0.60;;;21.90;84.70;;;;;;4957480;28;20434;-81
2023/08/13 04:41:11;;;;;;;0.60;0.60;;;22.00;84.90;;;;;;4957697;29;20449;-81
2023/08/13 04:43:38;;;;;;;0.80;0.80;;;21.90;85.50;;;;;;4950228;29;20452;-81
2023/08/13 04:46:05;;;;;;;1.00;0.80;;;21.80;85.20;;;;;;4961114;28;20527;-81
2023/08/13 04:48:46;;;;;;;0.83;0.83;;;21.80;85.60;;;;;;4955611;28;20442;-82
2023/08/13 04:51:16;;;;;;;0.60;0.60;;;22.00;85.40;;;;;;4967755;28;20448;-81
2023/08/13 04:53:44;;;;;;;0.87;0.80;;;21.90;84.90;;;;;;4959035;28;20450;-80
2023/08/13 04:56:11;;;;;;;0.70;0.70;;;22.00;84.50;;;;;;4953454;28;20632;-81
2023/08/13 04:58:37;;;;;;;0.77;0.77;;;22.20;84.60;;;;;;4961116;28;20478;-82
2023/08/13 05:01:06;;;;;;;0.70;0.70;;;22.10;84.90;;;;;;4970411;28;20515;-82
2023/08/13 05:03:33;;;;;;;0.60;0.60;;;22.00;84.60;;;;;;4964461;28;20449;-81
2023/08/13 05:06:00;;;;;;;0.50;0.50;;;22.00;85.40;;;;;;4962415;28;20477;-80
2023/08/13 05:08:27;;;;;;;0.80;0.80;;;22.00;85.70;;;;;;4960712;28;20547;-83
2023/08/13 05:10:54;;;;;;;0.60;0.60;;;22.10;86.10;;;;;;4967334;28;20457;-83
2023/08/13 05:13:22;;;;;;;0.60;0.60;;;22.10;85.70;;;;;;4955786;28;20446;-81
2023/08/13 05:15:48;;;;;;;2.00;1.90;;;22.10;85.70;;;;;;4957226;28;20479;-82
2023/08/13 05:18:16;;;;;;;1.30;1.20;;;22.10;86.30;;;;;;4955152;28;20457;-81
2023/08/13 05:20:42;;;;;;;1.20;1.10;;;22.10;86.60;;;;;;4951264;28;20768;-82
2023/08/13 05:23:10;;;;;;;0.80;0.80;;;22.20;86.00;;;;;;4969571;28;20446;-80
2023/08/13 05:25:38;;;;;;;1.30;1.20;;;22.30;85.90;;;;;;4959361;28;20423;-81
2023/08/13 05:28:07;;;;;;;0.73;0.73;;;22.20;85.80;;;;;;4957142;28;20784;-82
2023/08/13 05:30:36;;;;;;;2.20;1.80;;;22.40;85.90;;;;;;4959451;28;20486;-81
2023/08/13 05:33:04;;;;;;;0.83;0.83;;;22.60;84.10;;;;;;4955293;28;20441;-83
2023/08/13 05:35:31;;;;;;;1.80;1.70;;;22.80;84.80;;;;;;4959368;28;20501;-84
2023/08/13 05:37:58;;;;;;;7.53;1.20;;;22.70;84.70;;;;;;4961862;28;20652;-85
2023/08/13 05:40:25;;;;;;;0.73;0.73;;;22.60;84.50;;;;;;4966713;28;20440;-85
2023/08/13 05:42:52;;;;;;;0.70;0.70;;;22.70;84.70;;;;;;4956696;28;20423;-85
2023/08/13 05:45:19;;;;;;;0.60;0.60;;;22.70;84.40;;;;;;4953661;28;20743;-84
2023/08/13 05:47:47;;;;;;;1.00;1.00;;;22.80;84.70;;;;;;4956437;29;20684;-85
2023/08/13 05:50:13;;;;;;;1.33;1.33;;;22.60;85.20;;;;;;4955405;28;20465;-85
2023/08/13 05:52:41;;;;;;;1.23;1.20;;;22.60;86.00;;;;;;4950819;28;20520;-85
2023/08/13 05:55:08;;;;;;;0.60;0.60;;;22.80;84.70;;;;;;4963078;28;20646;-83
2023/08/13 05:57:35;;;;;;;2.60;2.40;;;23.00;84.10;;;;;;4979412;28;20438;-84
2023/08/13 06:00:09;;;;;;;0.70;0.70;;;23.30;83.50;;;;;;4970356;28;20420;-84
2023/08/13 06:02:37;;;;;;;0.70;0.70;;;23.40;82.80;;;;;;4961175;28;20447;-86
2023/08/13 06:05:06;;;;;;;0.83;0.83;;;23.60;81.80;;;;;;4974232;28;20507;-86
2023/08/13 06:07:34;;;;;;;1.73;1.53;;;23.90;81.00;;;;;;4971614;28;20445;-86
2023/08/13 06:10:04;;;;;;;0.90;0.90;;;24.10;81.10;;;;;;4966155;28;20431;-87
2023/08/13 06:12:32;;;;;;;0.60;0.60;;;24.20;80.50;;;;;;4967820;28;20506;-85
2023/08/13 06:15:00;;;;;;;2.93;2.50;;;24.30;79.70;;;;;;4977318;28;20448;-90
2023/08/13 06:17:26;;;;;;;1.77;1.67;;;24.50;79.90;;;;;;4970677;28;20497;-85
2023/08/13 06:19:54;;;;;;;1.53;1.43;;;24.50;79.70;;;;;;4970602;28;20449;-88
2023/08/13 06:22:21;;;;;;;0.80;0.80;;;25.00;79.10;;;;;;4961343;28;20449;-87
2023/08/13 06:24:48;;;;;;;1.63;1.00;;;24.90;79.00;;;;;;4960188;28;20435;-84
2023/08/13 06:27:15;;;;;;;1.27;1.10;;;25.00;79.10;;;;;;4961221;28;20472;-83
2023/08/13 06:29:43;;;;;;;0.87;0.87;;;25.10;79.10;;;;;;4962424;28;20517;-85
2023/08/13 06:32:30;;;;;;;0.70;0.70;;;25.30;78.40;;;;;;4961851;28;20711;-81
2023/08/13 06:34:57;;;;;;;0.90;0.90;;;25.20;79.20;;;;;;4965805;28;20461;-84
2023/08/13 06:37:24;;;;;;;0.90;0.80;;;25.50;78.20;;;;;;4974543;28;20496;-86
2023/08/13 06:39:51;;;;;;;0.97;0.97;;;25.70;78.00;;;;;;4958445;28;20619;-87
2023/08/13 06:42:21;;;;;;;0.87;0.87;;;25.90;77.70;;;;;;4962852;28;20459;-82
2023/08/13 06:44:49;;;;;;;1.07;1.07;;;26.00;77.20;;;;;;4971865;28;20444;-84
2023/08/13 06:47:18;;;;;;;1.33;1.23;;;26.30;77.10;;;;;;4966492;28;20449;-85
2023/08/13 06:49:45;;;;;;;0.87;0.87;;;26.30;75.70;;;;;;4962201;28;20593;-87
2023/08/13 06:52:12;;;;;;;0.80;0.80;;;26.40;75.50;;;;;;4966933;28;20497;-83
2023/08/13 06:54:40;;;;;;;1.30;1.23;;;26.50;75.20;;;;;;4967827;28;20441;-82
2023/08/13 06:57:08;;;;;;;1.40;1.30;;;26.70;74.40;;;;;;4965513;28;20477;-86
2023/08/13 06:59:35;;;;;;;0.60;0.60;;;26.90;74.40;;;;;;4975225;28;20461;-88
2023/08/13 07:02:04;;;;;;;1.30;1.20;;;27.10;73.90;;;;;;4958481;29;20456;-88
2023/08/13 07:04:32;;;;;;;0.80;0.80;;;27.20;73.00;;;;;;4975285;28;20407;-85
2023/08/13 07:07:02;;;;;;;1.10;1.10;;;27.60;72.50;;;;;;4977821;28;20784;-87
2023/08/13 07:09:51;;;;;;;1.00;1.00;;;27.90;70.70;;;;;;4947159;28;20514;-84
2023/08/13 07:12:16;;;;;;;1.00;1.00;;;27.90;70.70;;;;;;4961529;28;20443;-88
2023/08/13 07:14:44;;;;;;;0.80;0.80;;;28.50;69.20;;;;;;5163190;23;20506;-86
2023/08/13 07:17:11;;;;;;;0.80;0.80;;;28.80;67.80;;;;;;5001382;28;20515;-87
2023/08/13 07:19:38;;;;;;;1.57;1.47;;;28.90;67.40;;;;;;5005628;28;20532;-86
2023/08/13 07:22:05;;;;;;;1.80;1.70;;;29.30;66.90;;;;;;5005838;28;20467;-85
2023/08/13 07:24:32;;;;;;;0.80;0.80;;;29.70;65.90;;;;;;5005332;28;21157;-86
2023/08/13 07:27:00;;;;;;;0.80;0.80;;;29.70;64.90;;;;;;5000858;28;20450;-85
2023/08/13 07:29:27;;;;;;;0.70;0.70;;;30.20;64.10;;;;;;5114609;23;20830;-83
2023/08/13 07:31:54;;;;;;;1.00;1.00;;;30.50;62.50;;;;;;5103799;23;20455;-86
2023/08/13 07:34:21;;;;;;;1.20;1.20;;;31.00;61.00;;;;;;5024032;28;20435;-87
2023/08/13 07:36:48;;;;;;;0.90;0.90;;;31.30;58.90;;;;;;5019383;28;21090;-87
2023/08/13 07:39:16;;;;;;;0.90;0.80;;;31.50;58.70;;;;;;5048209;23;20504;-86
2023/08/13 07:41:43;;;;;;;1.07;1.07;;;32.10;57.50;;;;;;4973763;28;20714;-88
2023/08/13 07:44:10;;;;;;;1.53;1.43;;;32.30;56.10;;;;;;4974477;28;20436;-84
2023/08/13 07:46:38;;;;;;;0.90;0.90;;;32.60;54.90;;;;;;4972280;28;20454;-86
2023/08/13 07:49:05;;;;;;;0.80;0.80;;;33.10;54.60;;;;;;4960270;29;20452;-86
2023/08/13 07:51:32;;;;;;;25.57;3.07;;;33.30;53.40;;;;;;4969683;28;20680;-83
2023/08/13 07:54:00;;;;;;;1.07;1.07;;;33.50;53.00;;;;;;4963884;29;20513;-85
2023/08/13 07:56:27;;;;;;;1.10;0.90;;;33.30;53.10;;;;;;4969041;28;20500;-85
2023/08/13 07:58:54;;;;;;;0.90;0.90;;;33.10;53.80;;;;;;4978945;28;20468;-88
2023/08/13 08:01:21;;;;;;;1.00;1.00;;;33.90;52.40;;;;;;4972685;28;20448;-87
2023/08/13 08:03:48;;;;;;;1.80;1.70;;;34.20;52.20;;;;;;4968367;28;20472;-85
2023/08/13 08:06:15;;;;;;;1.10;1.10;;;34.40;51.20;;;;;;4967970;28;20464;-86
2023/08/13 08:08:42;;;;;;;3.13;1.67;;;34.80;50.40;;;;;;4962764;28;20489;-89
2023/08/13 08:11:10;;;;;;;1.10;1.10;;;33.40;51.50;;;;;;4963412;28;20441;-89
2023/08/13 08:13:37;;;;;;;0.80;0.80;;;33.50;52.60;;;;;;4994698;23;20539;-88
2023/08/13 08:16:04;;;;;;;0.93;0.93;;;33.50;53.00;;;;;;4990734;28;20540;-86
2023/08/13 08:18:31;;;;;;;1.60;1.50;;;33.30;53.80;;;;;;4984867;28;21057;-88
2023/08/13 08:20:58;;;;;;;0.90;0.90;;;33.40;52.70;;;;;;4967086;28;20484;-88
2023/08/13 08:23:29;;;;;;;1.53;1.43;;;33.70;52.60;;;;;;4968137;28;20502;-87
2023/08/13 08:28:35;;;;;;;0.80;0.80;;;33.20;53.70;;;;;;5101761;23;20480;-82
2023/08/13 08:31:05;;;;;;;1.00;1.00;;;33.40;53.00;;;;;;5008085;28;20443;-86
2023/08/13 08:33:32;;;;;;;2.00;1.90;;;33.80;51.70;;;;;;5003296;28;20745;-86
2023/08/13 08:35:59;;;;;;;1.17;1.10;;;33.90;51.40;;;;;;5000032;28;20565;-85
2023/08/13 08:38:26;;;;;;;0.93;0.93;;;34.00;50.80;;;;;;5004016;28;20798;-88
2023/08/13 08:40:58;;;;;;;1.00;1.00;;;34.40;50.60;;;;;;4999933;28;20454;-86
2023/08/13 08:43:33;;;;;;;1.00;1.00;;;34.00;50.90;;;;;;4999280;28;20455;-85
2023/08/13 08:46:02;;;;;;;1.00;1.00;;;34.00;50.50;;;;;;4999892;28;20775;-87
2023/08/13 08:48:37;;;;;;;1.43;1.33;;;34.20;50.80;;;;;;5006558;28;20457;-85
2023/08/13 08:51:08;;;;;;;1.50;1.50;;;35.10;48.40;;;;;;5001683;28;20446;-86
2023/08/13 08:53:34;;;;;;;0.90;0.90;;;33.90;50.10;;;;;;4990742;28;20432;-85
2023/08/13 08:56:05;;;;;;;1.57;1.43;;;33.70;52.20;;;;;;5004023;28;20459;-88
2023/08/13 08:58:31;;;;;;;0.90;0.90;;;32.70;53.30;;;;;;5007221;28;20528;-88
2023/08/13 09:01:02;;;;;;;0.87;0.87;;;31.70;55.70;;;;;;5007071;28;20439;-87
2023/08/13 09:03:29;;;;;;;0.80;0.80;;;32.00;54.90;;;;;;5169408;23;20500;-85
2023/08/13 09:05:56;;;;;;;1.90;1.80;;;33.10;53.20;;;;;;5024952;28;20459;-86
2023/08/13 09:08:33;;;;;;;1.00;1.00;;;34.40;50.70;;;;;;5129904;23;20510;-87
2023/08/13 09:11:03;;;;;;;0.90;0.90;;;35.00;50.00;;;;;;4985991;28;20455;-87
2023/08/13 09:13:30;;;;;;;0.90;0.90;;;34.20;49.20;;;;;;4987254;28;20712;-86
2023/08/13 09:18:39;;;;;;;0.80;0.80;;;32.50;54.40;;;;;;5085846;23;20482;-85
2023/08/13 09:21:09;;;;;;;0.90;0.90;;;31.80;55.80;;;;;;5468532;23;20742;-88
2023/08/13 09:23:39;;;;;;;0.80;0.80;;;32.50;55.00;;;;;;5001695;28;20440;-89
2023/08/13 09:26:10;;;;;;;1.00;1.00;;;33.10;53.50;;;;;;5001037;28;20435;-86
2023/08/13 09:31:24;;;;;;;0.70;0.70;;;34.30;49.80;;;;;;5189717;23;20573;-87
2023/08/13 09:36:32;;;;;;;0.67;0.67;;;33.80;51.40;;;;;;5727044;23;20462;-88
2023/08/13 09:39:00;;;;;;;0.60;0.60;;;32.70;53.10;;;;;;5316716;23;20507;-87
2023/08/13 09:44:10;;;;;;;1.00;1.00;;;31.80;56.10;;;;;;5578377;23;20503;-84
2023/08/13 09:46:45;;;;;;;1.00;1.00;;;31.30;56.70;;;;;;5108154;23;20479;-85
2023/08/13 09:51:43;;;;;;;0.80;0.80;;;30.70;58.40;;;;;;5736104;23;20491;-88
2023/08/13 09:54:24;;;;;;;0.70;0.70;;;30.70;57.50;;;;;;5745833;23;20446;-86
2023/08/13 09:57:12;;;;;;;6.63;2.40;;;30.80;57.80;;;;;;5138708;23;20588;-88
2023/08/13 10:00:02;;;;;;;0.80;0.80;;;30.90;57.90;;;;;;4948883;29;20438;-86
2023/08/13 10:02:35;;;;;;;0.80;0.80;;;29.90;60.60;;;;;;4947740;29;20434;-83
2023/08/13 10:05:03;;;;;;;1.07;1.07;;;29.20;63.10;;;;;;4946909;29;20470;-88
2023/08/13 10:07:32;;;;;;;1.10;1.10;;;29.10;63.50;;;;;;4951308;29;20446;-87
2023/08/13 10:13:00;;;;;;;0.80;0.80;;;28.80;65.00;;;;;;5201785;23;20228;-89
2023/08/13 10:15:29;;;;;;;0.90;0.87;;;28.80;63.80;;;;;;5411240;23;20707;-84
2023/08/13 10:18:05;;;;;;;2.00;1.90;;;29.10;63.20;;;;;;4946924;29;20841;-87
2023/08/13 10:20:42;;;;;;;0.90;0.90;;;29.30;62.70;;;;;;4953507;28;20460;-84
2023/08/13 10:23:10;;;;;;;1.63;1.53;;;29.40;61.60;;;;;;5084270;23;20571;-88
2023/08/13 10:31:24;;;;;;;0.97;0.97;;;30.10;61.50;;;;;;5182960;23;20486;-85
2023/08/13 10:37:17;;;;;;;0.83;0.83;;;29.70;61.70;;;;;;4987228;28;20504;-86
2023/08/13 10:42:37;;;;;;;1.10;1.10;;;30.40;60.30;;;;;;4980451;28;20457;-87
2023/08/13 10:45:10;;;;;;;0.87;0.87;;;30.40;59.20;;;;;;5108741;23;20477;-84
2023/08/13 10:47:48;;;;;;;0.70;0.70;;;30.50;59.60;;;;;;5242715;23;20449;-86
2023/08/13 10:50:41;;;;;;;1.10;1.10;;;30.40;59.30;;;;;;4999029;28;20455;-83
2023/08/13 10:53:18;;;;;;;1.30;1.30;;;30.60;58.70;;;;;;4994682;28;20566;-85
2023/08/13 10:58:26;;;;;;;1.20;1.20;;;31.00;59.20;;;;;;5364168;23;20485;-83
2023/08/13 11:01:13;;;;;;;0.80;0.80;;;31.20;57.20;;;;;;4982097;28;20456;-84
2023/08/13 11:03:46;;;;;;;0.70;0.70;;;30.80;58.20;;;;;;4976625;28;20480;-85
2023/08/13 11:06:17;;;;;;;0.80;0.80;;;30.50;59.80;;;;;;5003347;23;20531;-87
2023/08/13 11:08:46;;;;;;;1.13;1.13;;;30.20;59.60;;;;;;4962022;28;20737;-86
2023/08/13 11:11:19;;;;;;;0.80;0.80;;;30.20;60.30;;;;;;4981699;28;20908;-83
2023/08/13 11:13:47;;;;;;;2.27;2.17;;;30.00;59.40;;;;;;4961784;28;20712;-82
2023/08/13 11:16:14;;;;;;;1.20;1.20;;;30.00;59.00;;;;;;5012804;23;20595;-80
2023/08/13 11:18:43;;;;;;;1.03;1.03;;;30.50;60.20;;;;;;5002328;28;20450;-86
2023/08/13 11:21:10;;;;;;;1.00;1.00;;;30.60;58.30;;;;;;4998225;28;20448;-88
2023/08/13 11:23:37;;;;;;;0.80;0.80;;;30.60;58.00;;;;;;4995278;28;20440;-85
2023/08/13 11:26:05;;;;;;;0.80;0.80;;;30.60;58.70;;;;;;4998172;28;20752;-87
2023/08/13 11:28:32;;;;;;;2.13;2.03;;;30.80;58.20;;;;;;4990596;28;20451;-87
2023/08/13 11:30:59;;;;;;;0.90;0.90;;;30.70;57.90;;;;;;4993393;28;20542;-81
2023/08/13 11:33:27;;;;;;;0.80;0.80;;;30.70;58.80;;;;;;4990060;28;20475;-81
2023/08/13 11:35:56;;;;;;;1.20;1.10;;;30.50;57.70;;;;;;4991224;28;20447;-81
2023/08/13 11:38:23;;;;;;;0.77;0.77;;;29.90;58.70;;;;;;4991890;28;20476;-82
2023/08/13 11:40:50;;;;;;;0.60;0.60;;;29.50;59.70;;;;;;4991671;28;20428;-85
2023/08/13 11:43:18;;;;;;;0.80;0.80;;;29.40;60.70;;;;;;4995903;28;20455;-84
2023/08/13 11:45:48;;;;;;;0.80;0.80;;;29.40;60.40;;;;;;4992560;28;20424;-86
2023/08/13 11:48:20;;;;;;;0.93;0.93;;;29.40;60.60;;;;;;4982384;28;20433;-89
2023/08/13 11:53:20;;;;;;;1.33;1.23;;;29.10;61.80;;;;;;4948481;29;20492;-83
2023/08/13 11:55:50;;;;;;;11.43;2.07;;;29.00;62.20;;;;;;4944887;29;20690;-87
2023/08/13 11:58:19;;;;;;;1.00;1.00;;;29.40;62.50;;;;;;4947341;29;20450;-83
2023/08/13 12:00:48;;;;;;;1.37;1.37;;;29.70;61.00;;;;;;4950495;29;20438;-86
2023/08/13 12:03:15;;;;;;;0.87;0.87;;;29.80;60.40;;;;;;4949004;29;20446;-87
2023/08/13 12:05:43;;;;;;;0.70;0.70;;;30.30;60.60;;;;;;4950056;29;20490;-83
2023/08/13 12:08:10;;;;;;;0.77;0.77;;;30.40;60.40;;;;;;4946619;29;20476;-84
2023/08/13 12:10:39;;;;;;;0.90;0.90;;;30.40;59.40;;;;;;4949492;29;20505;-88
2023/08/13 12:13:06;;;;;;;0.97;0.97;;;30.20;58.50;;;;;;4948228;29;20513;-85
2023/08/13 12:15:34;;;;;;;1.00;1.00;;;29.90;57.60;;;;;;4948426;29;20739;-80
2023/08/13 12:18:01;;;;;;;0.70;0.70;;;29.60;58.70;;;;;;4946944;29;20666;-85
2023/08/13 12:20:28;;;;;;;1.00;1.00;;;29.60;58.60;;;;;;4944392;29;20429;-84
2023/08/13 12:22:55;;;;;;;0.90;0.90;;;29.80;58.70;;;;;;4943825;29;20609;-83
2023/08/13 12:25:22;;;;;;;0.70;0.70;;;30.20;58.40;;;;;;4947029;29;20493;-84
2023/08/13 12:27:54;;;;;;;1.03;1.03;;;30.30;58.10;;;;;;4944311;29;20498;-87
2023/08/13 12:30:21;;;;;;;1.43;1.33;;;30.50;57.70;;;;;;4946252;29;20442;-81
2023/08/13 12:32:48;;;;;;;2.97;1.73;;;30.50;56.70;;;;;;4941239;29;20541;-83
2023/08/13 12:35:16;;;;;;;0.80;0.80;;;30.20;56.10;;;;;;4940144;29;20535;-83
2023/08/13 12:37:43;;;;;;;0.60;0.60;;;30.20;56.20;;;;;;4940410;29;20446;-82
2023/08/13 12:40:10;;;;;;;0.80;0.80;;;30.10;57.60;;;;;;4941715;29;20478;-81
2023/08/13 12:42:37;;;;;;;0.70;0.70;;;30.30;56.00;;;;;;4939844;29;20443;-83
2023/08/13 12:45:06;;;;;;;2.00;1.47;;;30.50;56.40;;;;;;4945036;29;20466;-85
2023/08/13 12:47:37;;;;;;;0.90;0.90;;;30.50;57.00;;;;;;4945427;29;20453;-84
2023/08/13 12:50:08;;;;;;;2.07;1.97;;;30.20;56.30;;;;;;4943490;29;20439;-83
2023/08/13 12:52:35;;;;;;;0.80;0.80;;;30.30;57.20;;;;;;4945690;29;20544;-87
2023/08/13 12:55:05;;;;;;;1.10;1.10;;;30.00;57.30;;;;;;4945223;29;20462;-88
2023/08/13 12:57:33;;;;;;;1.00;1.00;;;30.20;56.40;;;;;;4941664;29;20454;-82
2023/08/13 12:59:59;;;;;;;1.63;1.53;;;30.20;56.30;;;;;;4939129;29;20785;-81
2023/08/13 13:02:27;;;;;;;0.90;0.90;;;29.90;57.50;;;;;;4930009;29;20517;-85
2023/08/13 13:04:55;;;;;;;0.70;0.70;;;29.80;58.40;;;;;;4934765;29;20438;-82
2023/08/13 13:07:23;;;;;;;0.70;0.70;;;29.90;58.70;;;;;;4944297;29;20430;-84
2023/08/13 13:09:52;;;;;;;0.80;0.80;;;30.00;57.80;;;;;;4939900;29;20474;-84
2023/08/13 13:12:22;;;;;;;0.70;0.70;;;30.20;58.20;;;;;;4941963;29;20481;-81
2023/08/13 13:14:50;;;;;;;0.87;0.87;;;30.10;58.30;;;;;;4941777;29;20458;-81
2023/08/13 13:17:16;;;;;;;0.80;0.80;;;30.20;58.90;;;;;;4942155;29;20683;-83
2023/08/13 13:19:43;;;;;;;0.80;0.80;;;30.00;58.70;;;;;;4938263;29;20707;-82
2023/08/13 13:22:11;;;;;;;1.10;1.00;;;29.90;59.10;;;;;;4938059;29;20446;-80
2023/08/13 13:24:38;;;;;;;0.90;0.90;;;29.90;59.30;;;;;;4940737;29;20477;-82
2023/08/13 13:27:05;;;;;;;0.70;0.70;;;29.60;58.60;;;;;;4942398;29;20436;-83
2023/08/13 13:29:34;;;;;;;0.70;0.70;;;29.40;59.30;;;;;;4941528;29;20501;-84
2023/08/13 13:32:01;;;;;;;1.17;1.17;;;29.40;59.30;;;;;;4940833;29;20729;-83